sensor_id;sensor_type;location;lat;lon;timestamp;pressure;altitude;pressure_sealevel;temperature;humidity
21826;BME280;11075;47.944;11.776;2023-03-01T00:01:06;95199.34;;;2.43;27.59
21826;BME280;11075;47.944;11.776;2023-03-01T00:03:33;95212.94;;;2.96;26.54
21826;BME280;11075;47.944;11.776;2023-03-01T00:06:01;95221.72;;;3.70;25.69
21826;BME280;11075;47.944;11.776;2023-03-01T00:08:28;95210.03;;;3.32;26.13
21826;BME280;11075;47.944;11.776;2023-03-01T00:13:30;95208.84;;;3.77;25.68
21826;BME280;11075;47.944;11.776;2023-03-01T00:15:57;95219.97;;;4.37;24.86
21826;BME280;11075;47.944;11.776;2023-03-01T00:18:24;95218.81;;;3.95;24.65
21826;BME280;11075;47.944;11.776;2023-03-01T00:20:52;95200.09;;;1.79;27.68
21826;BME280;11075;47.944;11.776;2023-03-01T00:23:20;95201.94;;;3.08;26.08
21826;BME280;11075;47.944;11.776;2023-03-01T00:25:48;95213.25;;;4.63;24.44
21826;BME280;11075;47.944;11.776;2023-03-01T00:28:16;95215.69;;;4.60;24.14
21826;BME280;11075;47.944;11.776;2023-03-01T00:30:43;95205.38;;;4.29;24.72
21826;BME280;11075;47.944;11.776;2023-03-01T00:33:10;95192.88;;;1.95;27.63
21826;BME280;11075;47.944;11.776;2023-03-01T00:35:37;95205.75;;;3.31;25.94
21826;BME280;11075;47.944;11.776;2023-03-01T00:38:04;95195.41;;;2.90;26.51
21826;BME280;11075;47.944;11.776;2023-03-01T00:40:33;95201.47;;;2.96;25.79
21826;BME280;11075;47.944;11.776;2023-03-01T00:43:01;95198.63;;;4.61;24.46
21826;BME280;11075;47.944;11.776;2023-03-01T00:45:28;95189.44;;;1.79;27.63
21826;BME280;11075;47.944;11.776;2023-03-01T00:47:57;95181.00;;;1.27;28.64
21826;BME280;11075;47.944;11.776;2023-03-01T00:50:25;95188.84;;;3.80;25.40
21826;BME280;11075;47.944;11.776;2023-03-01T00:52:53;95185.16;;;3.99;25.40
21826;BME280;11075;47.944;11.776;2023-03-01T00:55:21;95179.63;;;1.55;27.97
21826;BME280;11075;47.944;11.776;2023-03-01T00:57:48;95188.81;;;4.08;25.27
21826;BME280;11075;47.944;11.776;2023-03-01T01:00:15;95186.94;;;5.13;23.61
21826;BME280;11075;47.944;11.776;2023-03-01T01:02:42;95184.66;;;4.21;25.07
21826;BME280;11075;47.944;11.776;2023-03-01T01:05:09;95189.06;;;4.55;24.58
21826;BME280;11075;47.944;11.776;2023-03-01T01:07:37;95184.28;;;4.52;24.64
21826;BME280;11075;47.944;11.776;2023-03-01T01:10:04;95176.75;;;4.78;24.38
21826;BME280;11075;47.944;11.776;2023-03-01T01:12:32;95190.03;;;4.64;24.41
21826;BME280;11075;47.944;11.776;2023-03-01T01:14:59;95186.22;;;5.59;23.35
21826;BME280;11075;47.944;11.776;2023-03-01T01:17:26;95168.56;;;4.07;25.11
21826;BME280;11075;47.944;11.776;2023-03-01T01:19:53;95171.50;;;3.82;25.16
21826;BME280;11075;47.944;11.776;2023-03-01T01:22:19;95163.66;;;3.62;25.38
21826;BME280;11075;47.944;11.776;2023-03-01T01:24:46;95161.69;;;4.01;25.15
21826;BME280;11075;47.944;11.776;2023-03-01T01:27:13;95156.41;;;4.82;24.27
21826;BME280;11075;47.944;11.776;2023-03-01T01:29:40;95153.69;;;3.15;25.58
21826;BME280;11075;47.944;11.776;2023-03-01T01:32:08;95141.13;;;4.26;24.75
21826;BME280;11075;47.944;11.776;2023-03-01T01:34:35;95140.44;;;4.39;24.53
21826;BME280;11075;47.944;11.776;2023-03-01T01:37:03;95138.06;;;3.66;25.32
21826;BME280;11075;47.944;11.776;2023-03-01T01:39:29;95138.81;;;4.19;24.66
21826;BME280;11075;47.944;11.776;2023-03-01T01:41:56;95139.94;;;4.13;24.74
21826;BME280;11075;47.944;11.776;2023-03-01T01:44:26;95151.38;;;4.61;24.10
21826;BME280;11075;47.944;11.776;2023-03-01T01:47:02;95144.88;;;3.48;25.13
21826;BME280;11075;47.944;11.776;2023-03-01T01:49:37;95133.19;;;3.97;24.79
21826;BME280;11075;47.944;11.776;2023-03-01T01:52:09;95122.78;;;1.66;27.65
21826;BME280;11075;47.944;11.776;2023-03-01T01:57:18;95109.88;;;2.08;27.65
21826;BME280;11075;47.944;11.776;2023-03-01T01:59:50;95111.72;;;2.18;27.01
21826;BME280;11075;47.944;11.776;2023-03-01T02:02:19;95113.69;;;2.46;26.72
21826;BME280;11075;47.944;11.776;2023-03-01T02:04:48;95117.56;;;3.61;25.21
21826;BME280;11075;47.944;11.776;2023-03-01T02:07:20;95100.09;;;1.99;27.55
21826;BME280;11075;47.944;11.776;2023-03-01T02:09:50;95096.09;;;3.24;26.21
21826;BME280;11075;47.944;11.776;2023-03-01T02:12:23;95098.41;;;2.62;26.69
21826;BME280;11075;47.944;11.776;2023-03-01T02:14:50;95102.09;;;4.73;24.11
21826;BME280;11075;47.944;11.776;2023-03-01T02:17:18;95107.94;;;2.73;26.39
21826;BME280;11075;47.944;11.776;2023-03-01T02:20:14;95099.63;;;3.72;25.49
21826;BME280;11075;47.944;11.776;2023-03-01T02:22:44;95109.47;;;4.38;24.59
21826;BME280;11075;47.944;11.776;2023-03-01T02:25:38;95105.88;;;5.04;23.88
21826;BME280;11075;47.944;11.776;2023-03-01T02:30:44;95101.63;;;2.59;26.46
21826;BME280;11075;47.944;11.776;2023-03-01T02:33:31;95095.66;;;4.74;24.19
21826;BME280;11075;47.944;11.776;2023-03-01T02:36:02;95110.38;;;5.22;23.44
21826;BME280;11075;47.944;11.776;2023-03-01T02:38:31;95100.41;;;4.39;24.62
21826;BME280;11075;47.944;11.776;2023-03-01T02:40:59;95093.88;;;4.07;25.07
21826;BME280;11075;47.944;11.776;2023-03-01T02:43:30;95097.97;;;4.61;24.44
21826;BME280;11075;47.944;11.776;2023-03-01T02:46:01;95104.94;;;4.20;24.60
21826;BME280;11075;47.944;11.776;2023-03-01T02:48:43;95117.44;;;6.19;22.13
21826;BME280;11075;47.944;11.776;2023-03-01T02:56:44;95095.44;;;2.25;26.96
21826;BME280;11075;47.944;11.776;2023-03-01T02:59:20;95096.19;;;3.42;25.10
21826;BME280;11075;47.944;11.776;2023-03-01T03:01:48;95106.63;;;4.11;24.65
21826;BME280;11075;47.944;11.776;2023-03-01T03:04:17;95100.06;;;4.64;24.23
21826;BME280;11075;47.944;11.776;2023-03-01T03:06:50;95096.84;;;3.82;24.89
21826;BME280;11075;47.944;11.776;2023-03-01T03:09:18;95101.53;;;5.08;23.93
21826;BME280;11075;47.944;11.776;2023-03-01T03:11:45;95108.28;;;4.87;23.80
21826;BME280;11075;47.944;11.776;2023-03-01T03:14:14;95107.78;;;5.17;23.20
21826;BME280;11075;47.944;11.776;2023-03-01T03:16:47;95103.75;;;5.20;23.48
21826;BME280;11075;47.944;11.776;2023-03-01T03:19:15;95109.34;;;4.48;24.00
21826;BME280;11075;47.944;11.776;2023-03-01T03:21:43;95114.28;;;6.04;22.71
21826;BME280;11075;47.944;11.776;2023-03-01T03:24:10;95108.31;;;5.79;22.65
21826;BME280;11075;47.944;11.776;2023-03-01T03:26:37;95092.53;;;4.48;24.17
21826;BME280;11075;47.944;11.776;2023-03-01T03:29:04;95090.16;;;3.85;25.07
21826;BME280;11075;47.944;11.776;2023-03-01T03:31:30;95108.88;;;4.65;23.79
21826;BME280;11075;47.944;11.776;2023-03-01T03:33:57;95099.66;;;4.15;24.27
21826;BME280;11075;47.944;11.776;2023-03-01T03:36:25;95112.22;;;5.41;22.90
21826;BME280;11075;47.944;11.776;2023-03-01T03:38:52;95100.81;;;5.35;23.63
21826;BME280;11075;47.944;11.776;2023-03-01T03:41:19;95107.50;;;4.67;23.52
21826;BME280;11075;47.944;11.776;2023-03-01T03:43:46;95082.66;;;4.29;24.48
21826;BME280;11075;47.944;11.776;2023-03-01T03:46:13;95089.44;;;4.40;24.57
21826;BME280;11075;47.944;11.776;2023-03-01T03:48:42;95101.38;;;6.06;22.20
21826;BME280;11075;47.944;11.776;2023-03-01T03:51:12;95099.75;;;4.47;23.72
21826;BME280;11075;47.944;11.776;2023-03-01T03:53:40;95098.13;;;5.35;23.16
21826;BME280;11075;47.944;11.776;2023-03-01T03:56:07;95087.00;;;4.44;24.33
21826;BME280;11075;47.944;11.776;2023-03-01T03:58:34;95080.31;;;2.64;25.98
21826;BME280;11075;47.944;11.776;2023-03-01T04:01:02;95082.88;;;4.89;23.78
21826;BME280;11075;47.944;11.776;2023-03-01T04:03:31;95094.72;;;4.03;24.07
21826;BME280;11075;47.944;11.776;2023-03-01T04:05:59;95082.75;;;3.53;25.01
21826;BME280;11075;47.944;11.776;2023-03-01T04:08:27;95087.84;;;3.78;24.74
21826;BME280;11075;47.944;11.776;2023-03-01T04:11:00;95075.94;;;3.41;25.27
21826;BME280;11075;47.944;11.776;2023-03-01T04:13:48;95074.50;;;2.57;25.81
21826;BME280;11075;47.944;11.776;2023-03-01T04:16:15;95075.06;;;3.22;25.37
21826;BME280;11075;47.944;11.776;2023-03-01T04:18:42;95069.75;;;4.18;24.07
21826;BME280;11075;47.944;11.776;2023-03-01T04:21:09;95071.97;;;3.10;25.04
21826;BME280;11075;47.944;11.776;2023-03-01T04:23:38;95073.28;;;4.32;23.93
21826;BME280;11075;47.944;11.776;2023-03-01T04:26:05;95064.97;;;3.19;24.97
21826;BME280;11075;47.944;11.776;2023-03-01T04:28:34;95064.59;;;4.02;24.16
21826;BME280;11075;47.944;11.776;2023-03-01T04:31:22;95072.91;;;3.77;24.40
21826;BME280;11075;47.944;11.776;2023-03-01T04:33:52;95070.88;;;3.69;24.41
21826;BME280;11075;47.944;11.776;2023-03-01T04:36:21;95076.72;;;4.14;23.96
21826;BME280;11075;47.944;11.776;2023-03-01T04:38:49;95073.56;;;4.49;23.75
21826;BME280;11075;47.944;11.776;2023-03-01T04:41:18;95071.44;;;2.79;25.21
21826;BME280;11075;47.944;11.776;2023-03-01T04:43:45;95057.13;;;1.76;26.61
21826;BME280;11075;47.944;11.776;2023-03-01T04:46:14;95065.78;;;3.72;24.74
21826;BME280;11075;47.944;11.776;2023-03-01T04:48:42;95072.03;;;3.58;24.41
21826;BME280;11075;47.944;11.776;2023-03-01T04:51:11;95062.88;;;1.04;27.30
21826;BME280;11075;47.944;11.776;2023-03-01T04:53:42;95062.25;;;2.17;26.07
21826;BME280;11075;47.944;11.776;2023-03-01T04:56:10;95065.91;;;3.57;24.00
21826;BME280;11075;47.944;11.776;2023-03-01T04:58:37;95059.13;;;3.17;24.82
21826;BME280;11075;47.944;11.776;2023-03-01T05:01:17;95048.13;;;2.61;25.58
21826;BME280;11075;47.944;11.776;2023-03-01T05:03:47;95041.16;;;1.87;26.09
21826;BME280;11075;47.944;11.776;2023-03-01T05:06:15;95050.59;;;2.91;24.85
21826;BME280;11075;47.944;11.776;2023-03-01T05:08:43;95047.19;;;3.38;24.44
21826;BME280;11075;47.944;11.776;2023-03-01T05:11:11;95048.91;;;3.29;24.65
21826;BME280;11075;47.944;11.776;2023-03-01T05:13:39;95042.94;;;3.14;24.81
21826;BME280;11075;47.944;11.776;2023-03-01T05:16:08;95044.88;;;1.86;26.20
21826;BME280;11075;47.944;11.776;2023-03-01T05:18:40;95053.38;;;2.76;25.36
21826;BME280;11075;47.944;11.776;2023-03-01T05:21:10;95043.94;;;2.10;26.43
21826;BME280;11075;47.944;11.776;2023-03-01T05:23:37;95035.22;;;1.25;27.21
21826;BME280;11075;47.944;11.776;2023-03-01T05:26:05;95055.06;;;3.25;24.50
21826;BME280;11075;47.944;11.776;2023-03-01T05:28:37;95046.50;;;2.31;25.76
21826;BME280;11075;47.944;11.776;2023-03-01T05:31:04;95051.59;;;3.77;23.92
21826;BME280;11075;47.944;11.776;2023-03-01T05:33:37;95041.66;;;3.06;24.70
21826;BME280;11075;47.944;11.776;2023-03-01T05:36:06;95045.63;;;3.08;24.97
21826;BME280;11075;47.944;11.776;2023-03-01T05:38:33;95033.56;;;2.14;25.69
21826;BME280;11075;47.944;11.776;2023-03-01T05:41:00;95039.50;;;1.11;26.65
21826;BME280;11075;47.944;11.776;2023-03-01T05:43:30;95049.88;;;3.38;24.28
21826;BME280;11075;47.944;11.776;2023-03-01T05:46:00;95049.97;;;2.70;25.26
21826;BME280;11075;47.944;11.776;2023-03-01T05:48:28;95035.72;;;1.37;26.89
21826;BME280;11075;47.944;11.776;2023-03-01T05:50:59;95034.69;;;2.47;25.72
21826;BME280;11075;47.944;11.776;2023-03-01T05:53:27;95035.97;;;2.10;26.25
21826;BME280;11075;47.944;11.776;2023-03-01T05:55:53;95047.59;;;3.51;24.36
21826;BME280;11075;47.944;11.776;2023-03-01T05:58:20;95057.25;;;2.10;25.24
21826;BME280;11075;47.944;11.776;2023-03-01T06:00:48;95034.19;;;0.14;27.92
21826;BME280;11075;47.944;11.776;2023-03-01T06:03:17;95028.41;;;0.53;28.01
21826;BME280;11075;47.944;11.776;2023-03-01T06:05:44;95031.72;;;2.88;25.28
21826;BME280;11075;47.944;11.776;2023-03-01T06:08:11;95046.66;;;3.13;24.48
21826;BME280;11075;47.944;11.776;2023-03-01T06:10:39;95035.78;;;2.41;25.54
21826;BME280;11075;47.944;11.776;2023-03-01T06:13:06;95031.16;;;1.63;26.62
21826;BME280;11075;47.944;11.776;2023-03-01T06:15:33;95039.28;;;2.36;25.68
21826;BME280;11075;47.944;11.776;2023-03-01T06:18:00;95037.03;;;1.50;26.42
21826;BME280;11075;47.944;11.776;2023-03-01T06:20:28;95029.97;;;0.95;27.14
21826;BME280;11075;47.944;11.776;2023-03-01T06:22:55;95019.88;;;1.92;26.74
21826;BME280;11075;47.944;11.776;2023-03-01T06:25:24;95020.44;;;0.38;28.01
21826;BME280;11075;47.944;11.776;2023-03-01T06:27:51;95026.31;;;0.60;27.96
21826;BME280;11075;47.944;11.776;2023-03-01T06:30:23;95032.34;;;1.96;25.88
21826;BME280;11075;47.944;11.776;2023-03-01T06:32:50;95040.09;;;1.88;26.26
21826;BME280;11075;47.944;11.776;2023-03-01T06:35:18;95028.53;;;3.15;25.12
21826;BME280;11075;47.944;11.776;2023-03-01T06:37:46;95029.63;;;2.06;26.31
21826;BME280;11075;47.944;11.776;2023-03-01T06:40:14;95044.03;;;3.84;24.05
21826;BME280;11075;47.944;11.776;2023-03-01T06:42:42;95050.69;;;3.10;24.53
21826;BME280;11075;47.944;11.776;2023-03-01T06:45:09;95057.22;;;2.55;24.95
21826;BME280;11075;47.944;11.776;2023-03-01T06:47:36;95049.63;;;1.04;26.72
21826;BME280;11075;47.944;11.776;2023-03-01T06:50:03;95053.09;;;2.77;25.29
21826;BME280;11075;47.944;11.776;2023-03-01T06:52:30;95061.59;;;4.47;23.39
21826;BME280;11075;47.944;11.776;2023-03-01T06:54:57;95056.06;;;3.05;24.93
21826;BME280;11075;47.944;11.776;2023-03-01T06:57:24;95057.69;;;4.01;23.89
21826;BME280;11075;47.944;11.776;2023-03-01T06:59:51;95066.88;;;0.71;26.62
21826;BME280;11075;47.944;11.776;2023-03-01T07:02:18;95060.88;;;4.79;23.12
21826;BME280;11075;47.944;11.776;2023-03-01T07:04:45;95064.19;;;4.14;23.66
21826;BME280;11075;47.944;11.776;2023-03-01T07:07:12;95054.22;;;3.29;24.63
21826;BME280;11075;47.944;11.776;2023-03-01T07:09:39;95030.00;;;0.90;27.80
21826;BME280;11075;47.944;11.776;2023-03-01T07:12:06;95039.56;;;0.50;27.52
21826;BME280;11075;47.944;11.776;2023-03-01T07:14:34;95032.88;;;0.22;28.10
21826;BME280;11075;47.944;11.776;2023-03-01T07:17:01;95032.53;;;2.49;25.93
21826;BME280;11075;47.944;11.776;2023-03-01T07:19:28;95055.03;;;4.77;22.77
21826;BME280;11075;47.944;11.776;2023-03-01T07:21:54;95052.31;;;4.25;23.23
21826;BME280;11075;47.944;11.776;2023-03-01T07:24:22;95047.16;;;3.91;23.61
21826;BME280;11075;47.944;11.776;2023-03-01T07:26:50;95060.22;;;4.30;23.34
21826;BME280;11075;47.944;11.776;2023-03-01T07:29:18;95054.09;;;2.87;25.16
21826;BME280;11075;47.944;11.776;2023-03-01T07:31:45;95042.09;;;3.18;24.90
21826;BME280;11075;47.944;11.776;2023-03-01T07:34:12;95054.72;;;2.73;25.22
21826;BME280;11075;47.944;11.776;2023-03-01T07:36:39;95049.66;;;3.59;24.39
21826;BME280;11075;47.944;11.776;2023-03-01T07:39:10;95044.56;;;2.41;26.13
21826;BME280;11075;47.944;11.776;2023-03-01T07:41:38;95023.50;;;-0.21;29.01
21826;BME280;11075;47.944;11.776;2023-03-01T07:44:05;95041.81;;;2.52;26.02
21826;BME280;11075;47.944;11.776;2023-03-01T07:46:32;95027.81;;;1.97;26.57
21826;BME280;11075;47.944;11.776;2023-03-01T07:48:59;95046.38;;;3.67;24.30
21826;BME280;11075;47.944;11.776;2023-03-01T07:51:26;95045.19;;;2.67;24.59
21826;BME280;11075;47.944;11.776;2023-03-01T07:53:53;95030.38;;;1.52;26.53
21826;BME280;11075;47.944;11.776;2023-03-01T07:56:20;95021.47;;;0.11;28.33
21826;BME280;11075;47.944;11.776;2023-03-01T07:58:48;95014.47;;;-0.30;28.59
21826;BME280;11075;47.944;11.776;2023-03-01T08:01:19;95008.38;;;-0.88;29.58
21826;BME280;11075;47.944;11.776;2023-03-01T08:03:46;95014.97;;;1.60;26.59
21826;BME280;11075;47.944;11.776;2023-03-01T08:06:16;95020.22;;;3.21;24.74
21826;BME280;11075;47.944;11.776;2023-03-01T08:08:44;95026.63;;;2.57;25.42
21826;BME280;11075;47.944;11.776;2023-03-01T08:11:13;95022.69;;;2.50;25.68
21826;BME280;11075;47.944;11.776;2023-03-01T08:13:42;95015.16;;;0.63;28.70
21826;BME280;11075;47.944;11.776;2023-03-01T08:16:12;95010.88;;;0.93;27.53
21826;BME280;11075;47.944;11.776;2023-03-01T08:18:40;95014.50;;;1.32;26.97
21826;BME280;11075;47.944;11.776;2023-03-01T08:21:10;95032.19;;;3.24;24.21
21826;BME280;11075;47.944;11.776;2023-03-01T08:23:39;95033.69;;;1.94;25.96
21826;BME280;11075;47.944;11.776;2023-03-01T08:26:17;95013.41;;;3.58;25.10
21826;BME280;11075;47.944;11.776;2023-03-01T08:28:45;95018.78;;;3.05;24.48
21826;BME280;11075;47.944;11.776;2023-03-01T08:33:42;94991.81;;;0.80;28.02
21826;BME280;11075;47.944;11.776;2023-03-01T08:36:09;95004.06;;;4.03;24.12
21826;BME280;11075;47.944;11.776;2023-03-01T08:38:36;95015.75;;;4.26;23.59
21826;BME280;11075;47.944;11.776;2023-03-01T08:41:03;95005.16;;;1.45;27.19
21826;BME280;11075;47.944;11.776;2023-03-01T08:43:30;95009.63;;;3.64;25.00
21826;BME280;11075;47.944;11.776;2023-03-01T08:45:57;95014.13;;;2.19;25.78
21826;BME280;11075;47.944;11.776;2023-03-01T08:48:25;95005.81;;;2.64;25.87
21826;BME280;11075;47.944;11.776;2023-03-01T08:50:51;94986.56;;;1.50;27.69
21826;BME280;11075;47.944;11.776;2023-03-01T08:53:18;95004.84;;;1.67;26.01
21826;BME280;11075;47.944;11.776;2023-03-01T08:55:45;95004.44;;;1.24;26.97
21826;BME280;11075;47.944;11.776;2023-03-01T08:58:12;95000.66;;;2.05;26.25
21826;BME280;11075;47.944;11.776;2023-03-01T09:00:39;94990.66;;;3.65;24.91
21826;BME280;11075;47.944;11.776;2023-03-01T09:03:06;94994.97;;;0.93;27.49
21826;BME280;11075;47.944;11.776;2023-03-01T09:05:33;95008.94;;;6.13;22.46
21826;BME280;11075;47.944;11.776;2023-03-01T09:08:00;95009.91;;;2.52;25.00
21826;BME280;11075;47.944;11.776;2023-03-01T09:10:28;94998.25;;;1.49;26.81
21826;BME280;11075;47.944;11.776;2023-03-01T09:12:55;94997.56;;;3.24;24.70
21826;BME280;11075;47.944;11.776;2023-03-01T09:15:22;94993.88;;;4.61;23.63
21826;BME280;11075;47.944;11.776;2023-03-01T09:17:49;94989.00;;;3.51;24.62
21826;BME280;11075;47.944;11.776;2023-03-01T09:20:16;94971.69;;;3.00;25.91
21826;BME280;11075;47.944;11.776;2023-03-01T09:22:43;94984.72;;;5.27;23.63
21826;BME280;11075;47.944;11.776;2023-03-01T09:25:10;94976.09;;;6.80;22.72
21826;BME280;11075;47.944;11.776;2023-03-01T09:27:37;94968.94;;;2.19;25.88
21826;BME280;11075;47.944;11.776;2023-03-01T09:30:05;94962.31;;;2.50;25.92
21826;BME280;11075;47.944;11.776;2023-03-01T09:32:32;94952.97;;;3.77;25.25
21826;BME280;11075;47.944;11.776;2023-03-01T09:34:59;94957.47;;;1.84;26.98
21826;BME280;11075;47.944;11.776;2023-03-01T09:37:32;94977.63;;;3.64;24.43
21826;BME280;11075;47.944;11.776;2023-03-01T09:40:00;94980.84;;;4.41;24.36
21826;BME280;11075;47.944;11.776;2023-03-01T09:42:29;94985.59;;;5.09;23.24
21826;BME280;11075;47.944;11.776;2023-03-01T09:47:30;94987.06;;;3.80;24.33
21826;BME280;11075;47.944;11.776;2023-03-01T09:50:31;94997.44;;;4.38;23.62
21826;BME280;11075;47.944;11.776;2023-03-01T09:53:07;94992.31;;;4.23;24.47
21826;BME280;11075;47.944;11.776;2023-03-01T09:55:40;95004.28;;;6.05;22.32
21826;BME280;11075;47.944;11.776;2023-03-01T10:01:27;95002.75;;;4.38;23.54
21826;BME280;11075;47.944;11.776;2023-03-01T10:06:28;94995.91;;;3.52;24.90
21826;BME280;11075;47.944;11.776;2023-03-01T10:09:11;95003.81;;;5.34;22.80
21826;BME280;11075;47.944;11.776;2023-03-01T10:11:55;95000.06;;;5.22;22.70
21826;BME280;11075;47.944;11.776;2023-03-01T10:17:38;94990.94;;;5.09;23.10
21826;BME280;11075;47.944;11.776;2023-03-01T10:20:24;94987.03;;;4.88;23.60
21826;BME280;11075;47.944;11.776;2023-03-01T10:22:52;94993.13;;;4.75;23.69
21826;BME280;11075;47.944;11.776;2023-03-01T10:25:41;94991.66;;;5.28;23.35
21826;BME280;11075;47.944;11.776;2023-03-01T10:30:44;94998.78;;;5.74;22.44
21826;BME280;11075;47.944;11.776;2023-03-01T10:33:21;94997.41;;;5.77;22.44
21826;BME280;11075;47.944;11.776;2023-03-01T10:35:49;94995.66;;;4.98;23.34
21826;BME280;11075;47.944;11.776;2023-03-01T10:38:16;94995.78;;;4.61;23.60
21826;BME280;11075;47.944;11.776;2023-03-01T10:40:59;94983.00;;;7.03;21.57
21826;BME280;11075;47.944;11.776;2023-03-01T10:43:43;94985.16;;;6.12;22.38
21826;BME280;11075;47.944;11.776;2023-03-01T10:46:42;94972.22;;;3.02;25.39
21826;BME280;11075;47.944;11.776;2023-03-01T10:51:49;94962.59;;;4.81;23.59
21826;BME280;11075;47.944;11.776;2023-03-01T10:54:28;94952.75;;;5.22;23.36
21826;BME280;11075;47.944;11.776;2023-03-01T10:56:57;94951.47;;;6.47;22.18
21826;BME280;11075;47.944;11.776;2023-03-01T10:59:36;94942.56;;;5.24;23.48
21826;BME280;11075;47.944;11.776;2023-03-01T11:02:17;94946.81;;;6.83;22.28
21826;BME280;11075;47.944;11.776;2023-03-01T11:07:57;94935.44;;;5.33;23.30
21826;BME280;11075;47.944;11.776;2023-03-01T11:10:34;94921.56;;;4.77;24.13
21826;BME280;11075;47.944;11.776;2023-03-01T11:15:43;94924.44;;;4.80;23.29
21826;BME280;11075;47.944;11.776;2023-03-01T11:18:31;94926.69;;;3.89;24.51
21826;BME280;11075;47.944;11.776;2023-03-01T11:21:15;94930.19;;;7.04;21.75
21826;BME280;11075;47.944;11.776;2023-03-01T11:23:43;94923.31;;;3.17;24.60
21826;BME280;11075;47.944;11.776;2023-03-01T11:26:13;94940.44;;;6.71;21.83
21826;BME280;11075;47.944;11.776;2023-03-01T11:28:42;94930.59;;;7.76;20.86
21826;BME280;11075;47.944;11.776;2023-03-01T11:31:12;94921.81;;;7.27;21.43
21826;BME280;11075;47.944;11.776;2023-03-01T11:33:57;94907.63;;;5.62;22.75
21826;BME280;11075;47.944;11.776;2023-03-01T11:36:49;94914.75;;;6.25;22.32
21826;BME280;11075;47.944;11.776;2023-03-01T11:45:13;94911.81;;;6.80;21.76
21826;BME280;11075;47.944;11.776;2023-03-01T11:50:39;94915.19;;;7.34;21.36
21826;BME280;11075;47.944;11.776;2023-03-01T11:59:12;94915.38;;;6.67;21.35
21826;BME280;11075;47.944;11.776;2023-03-01T12:04:36;94885.66;;;2.81;25.72
21826;BME280;11075;47.944;11.776;2023-03-01T12:10:19;94877.81;;;4.59;24.57
21826;BME280;11075;47.944;11.776;2023-03-01T12:15:44;94871.84;;;4.48;24.45
21826;BME280;11075;47.944;11.776;2023-03-01T12:29:46;94863.66;;;7.37;21.70
21826;BME280;11075;47.944;11.776;2023-03-01T12:41:52;94864.50;;;2.95;25.77
21826;BME280;11075;47.944;11.776;2023-03-01T12:49:14;94857.25;;;6.67;22.34
21826;BME280;11075;47.944;11.776;2023-03-01T12:52:00;94858.00;;;7.99;21.39
21826;BME280;11075;47.944;11.776;2023-03-01T12:54:31;94844.22;;;5.76;23.58
21826;BME280;11075;47.944;11.776;2023-03-01T12:57:06;94837.03;;;4.26;24.50
21826;BME280;11075;47.944;11.776;2023-03-01T12:59:51;94819.53;;;3.87;25.60
21826;BME280;11075;47.944;11.776;2023-03-01T13:13:21;94840.16;;;8.37;21.09
21826;BME280;11075;47.944;11.776;2023-03-01T13:15:49;94842.63;;;5.75;23.17
21826;BME280;11075;47.944;11.776;2023-03-01T13:33:46;94823.84;;;6.64;22.55
21826;BME280;11075;47.944;11.776;2023-03-01T13:38:59;94811.94;;;5.73;23.67
21826;BME280;11075;47.944;11.776;2023-03-01T13:47:14;94825.09;;;6.36;22.98
21826;BME280;11075;47.944;11.776;2023-03-01T13:50:01;94818.03;;;7.19;22.40
21826;BME280;11075;47.944;11.776;2023-03-01T13:52:57;94839.97;;;8.42;20.79
21826;BME280;11075;47.944;11.776;2023-03-01T13:55:34;94854.88;;;12.64;17.09
21826;BME280;11075;47.944;11.776;2023-03-01T13:58:14;94849.28;;;10.55;19.38
21826;BME280;11075;47.944;11.776;2023-03-01T14:00:42;94825.59;;;8.47;21.04
21826;BME280;11075;47.944;11.776;2023-03-01T14:03:19;94803.69;;;8.28;21.71
21826;BME280;11075;47.944;11.776;2023-03-01T14:06:09;94827.13;;;11.95;18.13
21826;BME280;11075;47.944;11.776;2023-03-01T14:08:43;94818.75;;;10.63;19.42
21826;BME280;11075;47.944;11.776;2023-03-01T14:11:20;94806.94;;;6.24;22.73
21826;BME280;11075;47.944;11.776;2023-03-01T14:14:10;94795.63;;;7.15;22.17
21826;BME280;11075;47.944;11.776;2023-03-01T14:19:45;94815.22;;;11.07;19.33
21826;BME280;11075;47.944;11.776;2023-03-01T14:24:49;94828.91;;;9.29;20.87
21826;BME280;11075;47.944;11.776;2023-03-01T14:27:17;94800.09;;;4.33;24.81
21826;BME280;11075;47.944;11.776;2023-03-01T14:29:54;94801.22;;;6.17;23.01
21826;BME280;11075;47.944;11.776;2023-03-01T14:32:25;94816.66;;;9.10;20.73
21826;BME280;11075;47.944;11.776;2023-03-01T14:34:53;94807.00;;;8.33;21.17
21826;BME280;11075;47.944;11.776;2023-03-01T14:37:28;94805.28;;;7.25;22.24
21826;BME280;11075;47.944;11.776;2023-03-01T14:39:56;94803.13;;;8.98;20.86
21826;BME280;11075;47.944;11.776;2023-03-01T14:42:25;94815.78;;;9.27;20.48
21826;BME280;11075;47.944;11.776;2023-03-01T14:44:55;94818.28;;;9.53;20.21
21826;BME280;11075;47.944;11.776;2023-03-01T14:47:34;94821.94;;;11.50;18.05
21826;BME280;11075;47.944;11.776;2023-03-01T14:52:56;94820.72;;;11.11;18.35
21826;BME280;11075;47.944;11.776;2023-03-01T14:55:32;94829.03;;;12.51;17.28
21826;BME280;11075;47.944;11.776;2023-03-01T14:58:05;94836.28;;;12.47;17.64
21826;BME280;11075;47.944;11.776;2023-03-01T15:00:34;94826.97;;;12.91;17.21
21826;BME280;11075;47.944;11.776;2023-03-01T15:03:14;94826.63;;;11.78;18.25
21826;BME280;11075;47.944;11.776;2023-03-01T15:05:44;94817.00;;;11.92;18.55
21826;BME280;11075;47.944;11.776;2023-03-01T15:08:20;94828.00;;;11.99;18.03
21826;BME280;11075;47.944;11.776;2023-03-01T15:11:20;94826.09;;;11.35;18.23
21826;BME280;11075;47.944;11.776;2023-03-01T15:13:46;94818.19;;;12.07;17.96
21826;BME280;11075;47.944;11.776;2023-03-01T15:16:15;94833.72;;;12.38;17.56
21826;BME280;11075;47.944;11.776;2023-03-01T15:18:49;94831.38;;;11.68;18.16
21826;BME280;11075;47.944;11.776;2023-03-01T15:21:32;94821.53;;;11.88;17.84
21826;BME280;11075;47.944;11.776;2023-03-01T15:24:02;94832.38;;;12.60;17.36
21826;BME280;11075;47.944;11.776;2023-03-01T15:26:36;94829.19;;;12.42;17.56
21826;BME280;11075;47.944;11.776;2023-03-01T15:29:04;94825.66;;;12.26;17.78